Time;durP1;ratioP1;P1;durP2;ratioP2;P2;SDS_P1;SDS_P2;PMS_P1;PMS_P2;Temp;Humidity;BMP_temperature;BMP_pressure;BME280_temperature;BME280_humidity;BME280_pressure;Samples;Min_cycle;Max_cycle;Signal;HPM_P1;HPM_P2
2022/08/24 00:01:54;;;;;;;11.85;10.52;;;21.30;99.90;;;;;;4932505;29;20634;-79
2022/08/24 00:04:24;;;;;;;18.15;10.38;;;21.30;99.90;;;;;;4932903;29;20745;-79
2022/08/24 00:06:57;;;;;;;14.90;10.43;;;21.30;99.90;;;;;;4932258;29;20522;-78
2022/08/24 00:09:37;;;;;;;12.15;9.60;;;21.20;99.90;;;;;;4931782;29;20231;-78
2022/08/24 00:12:06;;;;;;;12.30;9.38;;;21.20;99.90;;;;;;4931226;29;20238;-77
2022/08/24 00:14:37;;;;;;;18.35;11.50;;;21.20;99.90;;;;;;4930649;29;20201;-78
2022/08/24 00:17:05;;;;;;;12.60;10.20;;;21.20;99.90;;;;;;4931145;29;20945;-78
2022/08/24 00:19:32;;;;;;;13.90;10.75;;;21.20;99.90;;;;;;4931852;29;20596;-78
2022/08/24 00:22:00;;;;;;;14.65;10.88;;;21.20;99.90;;;;;;4933880;29;20213;-78
2022/08/24 00:24:27;;;;;;;15.18;10.82;;;21.10;99.90;;;;;;4936851;29;20220;-78
2022/08/24 00:26:54;;;;;;;15.90;10.95;;;21.10;99.90;;;;;;4931163;29;20257;-77
2022/08/24 00:29:22;;;;;;;13.23;11.02;;;21.10;99.90;;;;;;4920604;29;20358;-77
2022/08/24 00:31:49;;;;;;;14.00;11.18;;;21.10;99.90;;;;;;4913117;29;20233;-78
2022/08/24 00:34:16;;;;;;;14.25;10.55;;;21.10;99.90;;;;;;4912841;29;20286;-77
2022/08/24 00:36:45;;;;;;;17.13;12.02;;;21.00;99.90;;;;;;4904618;29;20939;-78
2022/08/24 00:39:14;;;;;;;16.02;12.82;;;21.00;99.90;;;;;;4905012;29;20662;-77
2022/08/24 00:41:52;;;;;;;14.45;12.38;;;21.00;99.90;;;;;;4922235;29;20210;-78
2022/08/24 00:44:20;;;;;;;19.13;12.95;;;21.00;99.90;;;;;;4913780;29;20202;-76
2022/08/24 00:46:54;;;;;;;15.93;12.45;;;20.90;99.90;;;;;;4901492;29;20678;-78
2022/08/24 00:50:03;;;;;;;19.20;13.93;;;20.90;99.90;;;;;;4911125;29;20248;-78
2022/08/24 00:52:37;;;;;;;19.00;12.57;;;20.90;99.90;;;;;;4833568;29;20783;-77
2022/08/24 00:55:12;;;;;;;19.83;13.93;;;20.90;99.90;;;;;;4906936;29;20276;-77
2022/08/24 00:57:42;;;;;;;20.08;13.23;;;20.90;99.90;;;;;;4906272;29;20288;-76
2022/08/24 01:00:15;;;;;;;19.67;15.05;;;20.80;99.90;;;;;;4913270;29;20205;-77
2022/08/24 01:02:47;;;;;;;19.60;14.55;;;20.80;99.90;;;;;;4912727;29;20282;-78
2022/08/24 01:05:17;;;;;;;21.70;15.13;;;20.80;99.90;;;;;;4896136;29;20222;-78
2022/08/24 01:07:48;;;;;;;22.35;15.90;;;20.80;99.90;;;;;;4913334;29;20221;-77
2022/08/24 01:10:25;;;;;;;20.25;14.40;;;20.70;99.90;;;;;;4912468;29;20587;-78
2022/08/24 01:12:59;;;;;;;19.90;13.80;;;20.70;99.90;;;;;;4918198;29;20281;-78
2022/08/24 01:15:33;;;;;;;20.95;14.80;;;20.70;99.90;;;;;;4917906;29;20228;-77
2022/08/24 01:21:16;;;;;;;21.38;14.50;;;20.60;99.90;;;;;;4930108;29;20237;-78
2022/08/24 01:23:47;;;;;;;18.38;14.60;;;20.60;99.90;;;;;;4908058;29;20267;-75
2022/08/24 01:26:24;;;;;;;20.65;14.63;;;20.60;99.90;;;;;;4922865;29;20714;-79
2022/08/24 01:28:54;;;;;;;18.63;14.20;;;20.60;99.90;;;;;;4917239;29;20252;-77
2022/08/24 01:31:23;;;;;;;18.95;14.85;;;20.50;99.90;;;;;;4909895;29;20237;-78
2022/08/24 01:33:52;;;;;;;19.27;14.70;;;20.50;99.90;;;;;;4916041;29;20217;-78
2022/08/24 01:36:21;;;;;;;17.10;13.88;;;20.50;99.90;;;;;;4908727;29;20556;-78
2022/08/24 01:38:57;;;;;;;22.27;16.88;;;20.50;99.90;;;;;;4905348;29;20731;-78
2022/08/24 01:41:23;;;;;;;19.98;15.80;;;20.50;99.90;;;;;;4915793;29;20814;-79
2022/08/24 01:43:56;;;;;;;20.42;14.43;;;20.50;99.90;;;;;;4915574;29;20217;-78
2022/08/24 01:46:24;;;;;;;18.25;14.13;;;20.40;99.90;;;;;;4930844;29;20654;-78
2022/08/24 01:48:51;;;;;;;19.02;14.27;;;20.40;99.90;;;;;;4923445;29;20229;-78
2022/08/24 01:51:19;;;;;;;17.98;12.95;;;20.40;99.90;;;;;;4916312;29;20234;-78
2022/08/24 01:53:46;;;;;;;17.75;13.68;;;20.30;99.90;;;;;;4916246;29;20225;-78
2022/08/24 01:56:13;;;;;;;20.65;14.57;;;20.40;99.90;;;;;;4906519;29;20210;-78
2022/08/24 01:58:46;;;;;;;18.23;12.98;;;20.30;99.90;;;;;;4924516;29;20833;-78
2022/08/24 02:01:16;;;;;;;19.67;13.52;;;20.30;99.90;;;;;;4907131;29;20214;-78
2022/08/24 02:03:43;;;;;;;23.45;14.50;;;20.30;99.90;;;;;;4924238;29;20241;-79
2022/08/24 02:06:11;;;;;;;22.20;14.95;;;20.30;99.90;;;;;;4915892;29;20218;-78
2022/08/24 02:08:38;;;;;;;19.73;14.57;;;20.20;99.90;;;;;;4915534;29;20578;-79
2022/08/24 02:11:07;;;;;;;21.95;15.38;;;20.30;99.90;;;;;;4898665;29;20217;-78
2022/08/24 02:13:36;;;;;;;25.83;16.35;;;20.20;99.90;;;;;;4919435;29;20218;-79
2022/08/24 02:16:04;;;;;;;20.42;14.88;;;20.20;99.90;;;;;;4915067;29;20293;-78
2022/08/24 02:18:33;;;;;;;19.25;14.75;;;20.20;99.90;;;;;;4914971;29;20313;-78
2022/08/24 02:21:01;;;;;;;18.17;15.35;;;20.20;99.90;;;;;;4919351;29;20272;-78
2022/08/24 02:23:28;;;;;;;18.88;15.95;;;20.20;99.90;;;;;;4896890;29;20213;-78
2022/08/24 02:25:55;;;;;;;17.27;13.38;;;20.20;99.90;;;;;;4898074;29;20228;-77
2022/08/24 02:28:22;;;;;;;21.13;15.57;;;20.10;99.90;;;;;;4919912;29;20245;-77
2022/08/24 02:30:49;;;;;;;20.80;14.55;;;20.10;99.90;;;;;;4902158;29;20210;-78
2022/08/24 02:33:16;;;;;;;21.38;14.70;;;20.10;99.90;;;;;;4914157;29;20238;-78
2022/08/24 02:35:43;;;;;;;17.23;13.43;;;20.10;99.90;;;;;;4914234;29;20250;-78
2022/08/24 02:38:09;;;;;;;20.38;15.07;;;20.10;99.90;;;;;;4898340;29;20554;-78
2022/08/24 02:40:36;;;;;;;15.88;13.00;;;20.00;99.90;;;;;;4914770;29;20288;-78
2022/08/24 02:43:06;;;;;;;17.25;13.52;;;20.00;99.90;;;;;;4897886;29;20322;-79
2022/08/24 02:45:38;;;;;;;19.00;13.25;;;20.00;99.90;;;;;;4914653;29;20202;-78
2022/08/24 02:48:05;;;;;;;18.23;14.43;;;20.00;99.90;;;;;;4904311;29;20738;-78
2022/08/24 02:50:32;;;;;;;18.05;13.90;;;19.90;99.90;;;;;;4914325;29;20214;-77
2022/08/24 02:52:59;;;;;;;23.42;13.73;;;19.90;99.90;;;;;;4897592;29;20253;-78
2022/08/24 02:55:26;;;;;;;19.77;14.13;;;19.90;99.90;;;;;;4913974;29;20285;-78
2022/08/24 02:57:54;;;;;;;17.88;13.50;;;19.90;99.90;;;;;;4914108;29;20234;-77
2022/08/24 03:00:21;;;;;;;18.35;13.57;;;19.80;99.90;;;;;;4913966;29;20209;-78
2022/08/24 03:02:48;;;;;;;17.48;12.80;;;19.80;99.90;;;;;;4914280;29;20836;-78
2022/08/24 03:05:16;;;;;;;17.35;13.45;;;19.80;99.90;;;;;;4914034;29;20651;-78
2022/08/24 03:07:43;;;;;;;17.00;13.25;;;19.80;99.90;;;;;;4904207;29;20206;-78
2022/08/24 03:10:11;;;;;;;16.80;13.45;;;19.70;99.90;;;;;;4915845;29;20297;-78
2022/08/24 03:12:38;;;;;;;17.35;12.48;;;19.80;99.90;;;;;;4913796;29;20824;-78
2022/08/24 03:15:08;;;;;;;17.90;14.07;;;19.70;99.90;;;;;;4913777;29;20667;-79
2022/08/24 03:17:35;;;;;;;18.80;14.35;;;19.70;99.90;;;;;;4917155;29;20608;-79
2022/08/24 03:20:09;;;;;;;17.30;13.85;;;19.70;99.90;;;;;;4917084;29;20228;-78
2022/08/24 03:22:37;;;;;;;19.77;14.80;;;19.70;99.90;;;;;;4915375;29;20939;-78
2022/08/24 03:25:05;;;;;;;17.95;14.73;;;19.60;99.90;;;;;;4918495;29;20205;-78
2022/08/24 03:27:32;;;;;;;20.05;15.63;;;19.60;99.90;;;;;;4923977;29;20209;-78
2022/08/24 03:29:59;;;;;;;22.52;15.23;;;19.60;99.90;;;;;;4914087;29;20262;-78
2022/08/24 03:32:30;;;;;;;18.00;14.10;;;19.60;99.90;;;;;;4897534;29;20317;-77
2022/08/24 03:34:57;;;;;;;17.85;13.55;;;19.50;99.90;;;;;;4924273;29;20264;-77
2022/08/24 03:37:24;;;;;;;17.35;14.13;;;19.50;99.90;;;;;;4913579;29;20214;-78
2022/08/24 03:39:51;;;;;;;18.30;14.43;;;19.40;99.90;;;;;;4924515;29;20358;-78
2022/08/24 03:42:18;;;;;;;19.88;15.00;;;19.40;99.90;;;;;;4913877;29;20679;-78
2022/08/24 03:44:45;;;;;;;18.45;13.30;;;19.40;99.90;;;;;;4910085;29;20232;-78
2022/08/24 03:47:12;;;;;;;18.02;13.70;;;19.40;99.90;;;;;;4917816;29;20274;-78
2022/08/24 03:49:40;;;;;;;20.92;14.25;;;19.40;99.90;;;;;;4903953;29;20276;-77
2022/08/24 03:52:07;;;;;;;15.77;12.18;;;19.40;99.90;;;;;;4928762;29;20234;-79
2022/08/24 03:54:34;;;;;;;20.20;14.43;;;19.40;99.90;;;;;;4914074;29;20304;-80
2022/08/24 03:57:01;;;;;;;17.00;13.10;;;19.40;99.90;;;;;;4915398;29;20921;-77
2022/08/24 03:59:28;;;;;;;18.08;13.95;;;19.40;99.90;;;;;;4923656;29;20993;-78
2022/08/24 04:01:56;;;;;;;17.55;13.48;;;19.40;99.90;;;;;;4913761;29;20972;-78
2022/08/24 04:04:24;;;;;;;17.67;13.00;;;19.40;99.90;;;;;;4914368;29;20222;-78
2022/08/24 04:06:51;;;;;;;16.80;13.63;;;19.30;99.90;;;;;;4914828;29;20209;-79
2022/08/24 04:09:18;;;;;;;16.88;13.30;;;19.30;99.90;;;;;;4914048;29;20226;-76
2022/08/24 04:11:45;;;;;;;19.48;12.48;;;19.30;99.90;;;;;;4914347;29;20284;-78
2022/08/24 04:14:16;;;;;;;17.08;13.73;;;19.30;99.90;;;;;;4919460;29;20289;-77
2022/08/24 04:16:53;;;;;;;20.48;13.02;;;19.20;99.90;;;;;;4897601;29;20671;-77
2022/08/24 04:19:24;;;;;;;18.40;12.90;;;19.20;99.90;;;;;;4914857;29;20234;-78
2022/08/24 04:21:51;;;;;;;16.38;12.70;;;19.20;99.90;;;;;;4917528;29;20261;-78
2022/08/24 04:24:18;;;;;;;13.07;11.45;;;19.20;99.90;;;;;;4913183;29;20202;-77
2022/08/24 04:26:45;;;;;;;15.90;12.23;;;19.20;99.90;;;;;;4916953;29;20209;-78
2022/08/24 04:29:15;;;;;;;17.13;12.57;;;19.20;99.90;;;;;;4912862;29;20242;-78
2022/08/24 04:31:42;;;;;;;13.52;12.00;;;19.20;99.90;;;;;;4896748;29;20629;-78
2022/08/24 04:34:10;;;;;;;13.00;11.45;;;19.10;99.90;;;;;;4912728;29;20371;-78
2022/08/24 04:36:41;;;;;;;20.27;12.93;;;19.10;99.90;;;;;;4922978;29;20262;-77
2022/08/24 04:39:08;;;;;;;17.20;12.88;;;19.10;99.90;;;;;;4912828;29;20651;-78
2022/08/24 04:41:36;;;;;;;13.85;11.18;;;19.10;99.90;;;;;;4914547;29;20206;-77
2022/08/24 04:44:04;;;;;;;11.43;10.32;;;19.10;99.90;;;;;;4912712;29;20221;-81
2022/08/24 04:46:31;;;;;;;13.85;11.48;;;19.10;99.90;;;;;;4912384;29;20278;-78
2022/08/24 04:48:58;;;;;;;16.52;12.15;;;19.10;99.90;;;;;;4904230;29;20706;-79
2022/08/24 04:51:25;;;;;;;16.92;12.65;;;19.10;99.90;;;;;;4912361;29;20242;-78
2022/08/24 04:53:56;;;;;;;14.35;11.63;;;19.10;99.90;;;;;;4895296;29;20277;-77
2022/08/24 04:56:24;;;;;;;15.50;12.75;;;19.10;99.90;;;;;;4912205;29;20206;-78
2022/08/24 04:58:53;;;;;;;18.52;12.98;;;19.10;99.90;;;;;;4900918;29;20245;-78
2022/08/24 05:01:23;;;;;;;15.98;12.50;;;19.10;99.90;;;;;;4912309;29;20221;-77
2022/08/24 05:03:52;;;;;;;17.85;12.95;;;19.10;99.90;;;;;;4914749;29;20236;-79
2022/08/24 05:06:22;;;;;;;16.20;12.68;;;19.10;99.90;;;;;;4923310;29;20218;-79
2022/08/24 05:08:50;;;;;;;17.77;13.63;;;19.10;99.90;;;;;;4912085;29;20221;-79
2022/08/24 05:11:20;;;;;;;12.93;11.50;;;19.10;99.90;;;;;;4912153;29;20214;-78
2022/08/24 05:13:47;;;;;;;15.40;12.30;;;19.10;99.90;;;;;;4913579;29;20289;-79
2022/08/24 05:16:16;;;;;;;17.67;12.50;;;19.00;99.90;;;;;;4910372;29;20594;-78
2022/08/24 05:18:44;;;;;;;15.93;12.93;;;19.00;99.90;;;;;;4901838;29;20229;-79
2022/08/24 05:21:14;;;;;;;15.95;13.23;;;19.00;99.90;;;;;;4897011;29;20208;-77
2022/08/24 05:23:42;;;;;;;16.75;13.77;;;19.10;99.90;;;;;;4905756;29;20241;-77
2022/08/24 05:26:23;;;;;;;20.65;16.83;;;19.10;99.90;;;;;;4897378;29;20206;-78
2022/08/24 05:28:54;;;;;;;19.42;15.75;;;19.10;99.90;;;;;;4920745;28;20249;-78
2022/08/24 05:31:24;;;;;;;19.20;15.27;;;19.10;99.90;;;;;;4928699;29;20198;-79
2022/08/24 05:33:51;;;;;;;21.08;16.25;;;19.30;99.90;;;;;;4929530;29;20331;-78
2022/08/24 05:36:23;;;;;;;18.67;15.80;;;19.20;99.90;;;;;;4928084;29;20606;-79
2022/08/24 05:38:54;;;;;;;23.35;16.42;;;19.30;99.90;;;;;;4927328;29;20202;-78
2022/08/24 05:41:24;;;;;;;19.58;16.20;;;19.40;99.90;;;;;;4929306;29;20205;-80
2022/08/24 05:43:51;;;;;;;19.10;15.00;;;19.40;99.90;;;;;;4929358;29;20303;-79
2022/08/24 05:46:19;;;;;;;19.63;16.02;;;19.50;99.90;;;;;;4928415;29;20207;-79
2022/08/24 05:48:47;;;;;;;27.63;18.90;;;19.50;99.90;;;;;;4928156;29;20233;-79
2022/08/24 05:51:20;;;;;;;21.77;17.55;;;19.60;99.90;;;;;;4927902;29;20290;-78
2022/08/24 05:53:47;;;;;;;25.98;21.05;;;19.60;99.90;;;;;;4927611;29;20229;-79
2022/08/24 05:56:19;;;;;;;24.88;20.73;;;19.60;99.90;;;;;;4927712;29;20247;-79
2022/08/24 05:58:47;;;;;;;25.63;19.35;;;19.70;99.90;;;;;;4927394;29;20595;-79
2022/08/24 06:01:20;;;;;;;24.45;19.77;;;19.80;99.90;;;;;;4923706;29;20529;-79
2022/08/24 06:03:52;;;;;;;25.08;19.50;;;19.90;99.90;;;;;;4926803;28;20229;-79
2022/08/24 06:06:20;;;;;;;28.40;20.95;;;20.00;99.90;;;;;;4928405;29;20661;-80
2022/08/24 06:08:50;;;;;;;25.95;18.75;;;19.90;99.90;;;;;;4931480;29;20208;-80
2022/08/24 06:11:38;;;;;;;26.30;22.95;;;20.00;99.90;;;;;;4931600;29;20265;-78
2022/08/24 06:14:08;;;;;;;27.30;23.85;;;20.00;99.90;;;;;;4931990;29;20243;-79
2022/08/24 06:16:41;;;;;;;32.03;22.73;;;20.10;99.90;;;;;;4932053;29;20201;-79
2022/08/24 06:19:10;;;;;;;33.45;24.83;;;20.20;99.90;;;;;;4939370;29;20303;-79
2022/08/24 06:21:37;;;;;;;36.20;25.25;;;20.40;99.90;;;;;;4931589;29;20205;-79
2022/08/24 06:24:06;;;;;;;34.47;26.15;;;20.50;99.90;;;;;;4931329;29;20280;-79
2022/08/24 06:29:19;;;;;;;27.55;22.65;;;21.50;99.90;;;;;;4928724;29;20240;-80
2022/08/24 06:31:47;;;;;;;27.85;22.65;;;22.30;99.90;;;;;;4932332;29;20216;-80
2022/08/24 06:34:20;;;;;;;33.10;24.50;;;23.20;99.90;;;;;;4905302;29;20654;-79
2022/08/24 06:36:47;;;;;;;35.67;25.08;;;24.10;99.90;;;;;;4912371;29;20210;-79
2022/08/24 06:39:14;;;;;;;35.47;25.40;;;24.90;99.90;;;;;;4913002;29;20213;-79
2022/08/24 06:41:43;;;;;;;29.65;23.77;;;25.60;99.90;;;;;;4913756;29;20297;-79
2022/08/24 06:44:09;;;;;;;28.10;24.13;;;26.30;99.90;;;;;;4913728;29;20226;-80
2022/08/24 06:46:38;;;;;;;29.08;22.92;;;27.10;99.90;;;;;;4895101;29;20209;-78
2022/08/24 06:49:05;;;;;;;28.25;23.05;;;28.00;99.90;;;;;;4907468;29;20234;-81
2022/08/24 06:51:32;;;;;;;25.80;23.10;;;28.80;99.90;;;;;;4913164;29;20225;-79
2022/08/24 06:53:59;;;;;;;24.08;20.88;;;29.50;99.90;;;;;;4913282;29;20621;-80
2022/08/24 06:56:26;;;;;;;25.85;22.00;;;30.20;99.90;;;;;;4912796;29;20222;-80
2022/08/24 06:58:53;;;;;;;23.65;20.98;;;30.80;99.90;;;;;;4911852;29;20753;-80
2022/08/24 07:01:23;;;;;;;24.95;20.65;;;31.50;99.90;;;;;;4913159;29;20206;-80
2022/08/24 07:03:51;;;;;;;25.33;20.98;;;32.10;99.90;;;;;;4913008;29;20236;-79
2022/08/24 07:06:19;;;;;;;24.88;20.40;;;32.60;99.90;;;;;;4909311;29;20293;-79
2022/08/24 07:08:45;;;;;;;24.02;19.67;;;33.00;99.90;;;;;;4896202;29;20266;-78
2022/08/24 07:11:17;;;;;;;25.10;19.65;;;33.30;99.90;;;;;;4912485;29;20595;-80
2022/08/24 07:13:51;;;;;;;24.17;17.50;;;33.60;99.90;;;;;;4912890;29;20267;-79
2022/08/24 07:16:34;;;;;;;20.08;17.90;;;34.00;99.90;;;;;;4911963;29;20253;-80
2022/08/24 07:19:28;;;;;;;18.58;15.65;;;34.20;99.90;;;;;;4917984;29;20229;-81
2022/08/24 07:22:06;;;;;;;20.10;14.07;;;34.60;99.90;;;;;;4900590;29;20213;-80
2022/08/24 07:24:52;;;;;;;18.33;13.75;;;34.70;99.90;;;;;;4898502;29;20269;-81
2022/08/24 07:27:28;;;;;;;18.77;15.32;;;34.90;99.90;;;;;;4896569;29;20201;-80
2022/08/24 07:33:43;;;;;;;14.52;12.98;;;35.20;99.20;;;;;;4930434;29;20601;-80
2022/08/24 07:36:30;;;;;;;15.50;13.88;;;35.10;99.20;;;;;;4929485;29;20231;-80
2022/08/24 07:39:41;;;;;;;15.02;13.25;;;35.20;98.20;;;;;;4923114;29;20350;-81
2022/08/24 07:42:39;;;;;;;14.65;11.68;;;35.40;98.00;;;;;;4930443;29;20216;-81
2022/08/24 07:45:34;;;;;;;15.40;13.70;;;35.60;97.10;;;;;;4931590;29;20293;-79
2022/08/24 07:48:38;;;;;;;13.93;12.10;;;35.90;96.40;;;;;;4925360;28;20669;-80
2022/08/24 07:51:45;;;;;;;;;;;;;;;;;;;;;
2022/08/24 07:54:58;;;;;;;16.38;11.68;;;36.00;95.50;;;;;;4920745;29;20271;-81
2022/08/24 07:57:43;;;;;;;16.23;12.93;;;36.20;95.10;;;;;;4934525;28;20209;-80
2022/08/24 08:01:06;;;;;;;;;;;;;;;;;;;;;
2022/08/24 08:04:14;;;;;;;14.43;10.60;;;36.40;93.60;;;;;;4935825;28;20299;-80
2022/08/24 08:07:23;;;;;;;;;;;;;;;;;;;;;
2022/08/24 08:10:36;;;;;;;11.90;9.95;;;36.50;92.70;;;;;;4931571;29;20293;-79
2022/08/24 08:13:55;;;;;;;14.07;11.30;;;36.50;92.00;;;;;;4928968;29;20244;-79
2022/08/24 08:17:27;;;;;;;;;;;;;;;;;;;;;
2022/08/24 08:21:08;;;;;;;;;;;;;;;;;;;;;
2022/08/24 08:24:57;;;;;;;10.43;9.30;;;36.60;91.10;;;;;;4794336;29;20309;-80
2022/08/24 08:27:38;;;;;;;13.25;9.60;;;36.50;91.40;;;;;;4843198;29;20235;-80
2022/08/24 08:30:06;;;;;;;13.10;8.93;;;36.50;91.40;;;;;;4870047;29;20318;-80
2022/08/24 08:32:33;;;;;;;9.07;7.60;;;36.60;90.70;;;;;;4871673;29;20218;-81
2022/08/24 08:35:00;;;;;;;7.78;6.38;;;36.80;90.20;;;;;;4871002;29;20298;-80
2022/08/24 08:37:28;;;;;;;9.13;6.95;;;37.00;90.00;;;;;;4856051;29;20229;-81
2022/08/24 08:39:55;;;;;;;9.32;6.13;;;36.90;89.20;;;;;;4865400;29;20683;-80
2022/08/24 08:42:55;;;;;;;14.25;6.55;;;36.80;89.20;;;;;;4871324;29;20238;-80
2022/08/24 08:45:42;;;;;;;8.32;6.68;;;36.90;89.10;;;;;;4860319;29;20223;-80
2022/08/24 08:48:25;;;;;;;6.95;5.75;;;36.80;90.00;;;;;;4866908;29;20249;-80
2022/08/24 08:51:32;;;;;;;10.05;5.88;;;36.80;90.30;;;;;;4871537;29;20687;-79
2022/08/24 08:54:12;;;;;;;7.32;5.63;;;36.70;87.90;;;;;;4870719;29;20767;-79
2022/08/24 08:57:22;;;;;;;9.73;5.20;;;36.60;86.50;;;;;;4881028;29;20221;-80
2022/08/24 09:00:04;;;;;;;6.97;5.43;;;36.40;88.40;;;;;;4929305;29;20354;-80
2022/08/24 09:02:55;;;;;;;7.47;5.05;;;36.40;87.30;;;;;;4929931;29;20677;-80
2022/08/24 09:05:50;;;;;;;6.65;5.13;;;36.40;87.90;;;;;;4929835;29;20232;-80
2022/08/24 09:08:32;;;;;;;6.20;4.78;;;36.50;88.50;;;;;;4928170;29;20213;-80
2022/08/24 09:11:31;;;;;;;6.70;4.53;;;36.30;87.40;;;;;;4927999;29;20640;-80
2022/08/24 09:14:45;;;;;;;6.13;4.80;;;36.40;86.90;;;;;;4936319;28;20244;-79
2022/08/24 09:17:46;;;;;;;6.53;4.10;;;36.30;86.80;;;;;;4929954;29;20239;-80
2022/08/24 09:20:36;;;;;;;5.57;3.90;;;36.20;85.70;;;;;;4927642;29;20228;-79
2022/08/24 09:23:40;;;;;;;6.10;4.28;;;35.90;85.90;;;;;;4924214;29;20276;-79
2022/08/24 09:26:26;;;;;;;6.93;4.88;;;35.70;89.80;;;;;;4929498;29;20209;-79
2022/08/24 09:37:22;;;;;;;5.28;4.28;;;35.30;87.70;;;;;;4939136;23;20614;-80
2022/08/24 09:40:12;;;;;;;5.05;3.83;;;35.40;88.10;;;;;;4938077;28;20708;-79
2022/08/24 09:42:51;;;;;;;6.95;3.90;;;35.50;88.00;;;;;;4894965;29;20213;-80
2022/08/24 09:45:36;;;;;;;5.47;3.47;;;35.50;86.90;;;;;;4937072;28;20279;-79
2022/08/24 09:48:09;;;;;;;6.25;3.78;;;35.50;87.00;;;;;;4936549;29;20216;-79
2022/08/24 09:51:09;;;;;;;2.90;2.70;;;35.50;86.40;;;;;;4931337;28;20208;-79
2022/08/24 09:53:53;;;;;;;5.63;2.90;;;35.40;86.30;;;;;;4935819;29;20299;-79
2022/08/24 09:56:48;;;;;;;7.45;3.03;;;35.30;86.30;;;;;;4922463;29;20264;-79
2022/08/24 09:59:49;;;;;;;5.32;3.17;;;35.20;87.40;;;;;;4923128;29;20613;-79
2022/08/24 10:02:55;;;;;;;3.88;2.80;;;35.20;86.30;;;;;;4939528;28;20240;-79
2022/08/24 10:05:39;;;;;;;5.40;3.40;;;35.10;87.80;;;;;;4874623;29;20339;-79
2022/08/24 10:08:35;;;;;;;4.60;3.03;;;35.00;86.40;;;;;;4917431;29;20627;-79
2022/08/24 10:11:35;;;;;;;4.60;3.10;;;34.90;86.00;;;;;;4924864;29;20217;-80
2022/08/24 10:14:20;;;;;;;5.07;2.83;;;34.80;86.70;;;;;;4928569;29;20233;-80
2022/08/24 10:17:14;;;;;;;5.45;3.00;;;34.70;86.20;;;;;;4932071;29;20209;-79
2022/08/24 10:20:00;;;;;;;5.05;3.13;;;34.70;86.00;;;;;;4933796;29;20229;-80
2022/08/24 10:23:07;;;;;;;5.07;3.30;;;34.70;87.60;;;;;;4930338;29;20209;-80
2022/08/24 10:41:54;;;;;;;4.57;3.00;;;34.30;87.70;;;;;;4986251;28;20195;-80
2022/08/24 10:44:21;;;;;;;4.43;2.92;;;34.10;88.20;;;;;;4979612;28;20207;-81
2022/08/24 10:46:58;;;;;;;4.13;2.90;;;34.10;88.40;;;;;;4989486;28;20761;-79
2022/08/24 10:49:34;;;;;;;3.40;2.85;;;34.10;89.30;;;;;;4984196;28;20255;-81
2022/08/24 10:52:22;;;;;;;3.22;2.92;;;34.20;88.60;;;;;;4987804;28;20608;-80
2022/08/24 10:54:49;;;;;;;3.63;2.90;;;34.20;87.70;;;;;;4989792;28;20309;-81
2022/08/24 10:57:38;;;;;;;3.58;3.08;;;34.00;88.20;;;;;;4989621;28;20289;-80
2022/08/24 11:00:13;;;;;;;3.78;2.83;;;33.80;87.30;;;;;;4983532;28;20210;-80
2022/08/24 11:02:49;;;;;;;4.03;3.17;;;33.60;87.70;;;;;;4983115;28;20207;-79
2022/08/24 11:05:28;;;;;;;2.97;2.70;;;33.40;89.80;;;;;;4985082;28;20262;-80
2022/08/24 11:08:04;;;;;;;4.40;2.90;;;33.20;90.10;;;;;;4988865;28;20207;-81
2022/08/24 11:10:38;;;;;;;3.03;2.70;;;33.10;90.20;;;;;;4990431;28;20550;-79
2022/08/24 11:13:17;;;;;;;3.38;2.72;;;32.90;90.30;;;;;;5000923;28;20230;-80
2022/08/24 11:15:56;;;;;;;3.00;2.70;;;32.70;90.40;;;;;;4992572;28;20656;-79
2022/08/24 11:18:24;;;;;;;5.30;2.78;;;32.50;90.50;;;;;;4991142;28;20276;-79
2022/08/24 11:20:54;;;;;;;3.22;2.72;;;32.30;90.90;;;;;;4987023;28;20207;-81
2022/08/24 11:23:33;;;;;;;3.70;3.38;;;32.10;91.30;;;;;;4996801;28;20663;-80
2022/08/24 11:26:10;;;;;;;3.15;2.80;;;32.10;92.20;;;;;;4978593;28;20618;-80
2022/08/24 11:28:40;;;;;;;5.28;2.90;;;32.10;91.90;;;;;;5003382;28;20734;-80
2022/08/24 11:31:25;;;;;;;3.17;2.80;;;32.10;91.30;;;;;;5009149;28;20634;-80
2022/08/24 11:34:03;;;;;;;3.28;2.63;;;32.20;90.70;;;;;;5008599;28;20341;-78
2022/08/24 11:36:35;;;;;;;5.13;2.88;;;32.10;90.70;;;;;;5000907;28;20238;-80
2022/08/24 11:39:16;;;;;;;3.30;2.80;;;32.30;91.30;;;;;;4987778;28;20710;-81
2022/08/24 11:42:01;;;;;;;3.78;2.97;;;32.60;91.30;;;;;;4991071;28;20206;-79
2022/08/24 11:44:36;;;;;;;4.05;2.70;;;32.80;90.80;;;;;;4996432;28;20664;-79
2022/08/24 11:47:27;;;;;;;4.75;2.80;;;33.00;90.30;;;;;;4989606;28;20211;-80
2022/08/24 11:50:06;;;;;;;4.85;2.88;;;33.00;90.70;;;;;;4987226;28;20510;-80
2022/08/24 11:53:01;;;;;;;4.20;2.72;;;32.90;90.90;;;;;;4982096;28;20265;-79
2022/08/24 11:55:41;;;;;;;4.47;3.08;;;33.00;91.10;;;;;;5001931;28;20231;-79
2022/08/24 11:58:25;;;;;;;3.00;2.42;;;33.10;91.20;;;;;;4991520;28;20647;-79
2022/08/24 12:01:28;;;;;;;3.42;2.50;;;33.30;91.40;;;;;;4995368;28;20653;-79
2022/08/24 12:04:04;;;;;;;2.72;2.53;;;33.50;90.60;;;;;;4988309;28;20550;-78
2022/08/24 12:06:51;;;;;;;3.00;2.70;;;33.70;90.50;;;;;;4984518;28;20203;-79
2022/08/24 12:09:58;;;;;;;6.32;2.70;;;33.90;90.00;;;;;;4988595;28;20218;-79
2022/08/24 12:12:50;;;;;;;3.83;2.58;;;34.00;90.20;;;;;;4987747;28;20249;-80
2022/08/24 12:15:53;;;;;;;2.85;2.60;;;34.20;87.60;;;;;;4984872;28;20261;-82
2022/08/24 12:18:27;;;;;;;3.83;2.60;;;34.30;87.40;;;;;;4990819;28;20606;-78
2022/08/24 12:20:55;;;;;;;2.72;2.45;;;34.20;88.30;;;;;;4980561;28;20207;-80
2022/08/24 12:23:41;;;;;;;3.05;2.72;;;34.20;88.10;;;;;;5003894;28;20571;-80
2022/08/24 12:26:12;;;;;;;4.47;2.90;;;34.30;87.70;;;;;;4988896;28;20210;-80
2022/08/24 12:28:49;;;;;;;3.78;2.60;;;34.10;86.40;;;;;;4987040;28;20206;-80
2022/08/24 12:31:28;;;;;;;2.60;2.38;;;34.00;86.00;;;;;;4983766;28;20278;-81
2022/08/24 12:34:00;;;;;;;3.00;2.70;;;33.80;86.60;;;;;;4997560;28;20817;-80
2022/08/24 12:36:35;;;;;;;2.88;2.65;;;33.70;86.10;;;;;;5000303;28;20202;-81
2022/08/24 12:39:24;;;;;;;3.25;2.50;;;33.50;86.30;;;;;;4986008;28;20222;-81
2022/08/24 12:42:14;;;;;;;2.60;2.40;;;33.30;88.20;;;;;;4995174;28;20298;-82
2022/08/24 12:44:58;;;;;;;3.25;2.55;;;33.20;87.30;;;;;;4987321;28;20215;-80
2022/08/24 12:47:40;;;;;;;2.95;2.45;;;33.20;87.20;;;;;;4985718;28;20262;-80
2022/08/24 12:50:18;;;;;;;6.93;2.45;;;33.40;88.10;;;;;;4987933;28;20254;-80
2022/08/24 12:52:59;;;;;;;3.83;2.00;;;33.60;88.40;;;;;;4987730;28;20217;-80
2022/08/24 12:56:01;;;;;;;3.90;2.50;;;33.80;86.90;;;;;;5005326;28;20244;-79
2022/08/24 12:58:33;;;;;;;3.92;2.58;;;34.00;85.70;;;;;;4992647;28;20233;-79
2022/08/24 13:01:12;;;;;;;2.60;2.40;;;33.80;85.90;;;;;;4987735;28;20310;-79
2022/08/24 13:03:42;;;;;;;4.32;2.30;;;33.80;87.10;;;;;;4987022;28;20223;-81
2022/08/24 13:06:26;;;;;;;3.92;1.92;;;33.80;87.70;;;;;;4999014;28;20248;-79
2022/08/24 13:09:06;;;;;;;4.65;2.25;;;34.10;86.10;;;;;;4988796;28;20671;-79
2022/08/24 13:11:36;;;;;;;2.53;2.15;;;34.50;85.00;;;;;;5007136;28;20257;-80
2022/08/24 13:14:22;;;;;;;2.28;1.85;;;34.80;83.70;;;;;;4997629;28;20206;-81
2022/08/24 13:16:49;;;;;;;1.90;1.80;;;35.00;82.40;;;;;;4990279;28;20215;-80
2022/08/24 13:19:22;;;;;;;3.53;2.10;;;35.20;83.20;;;;;;4993290;28;20254;-79
2022/08/24 13:21:57;;;;;;;2.63;1.92;;;35.50;82.70;;;;;;4991346;28;20223;-79
2022/08/24 13:24:27;;;;;;;2.17;1.90;;;35.70;80.70;;;;;;4991534;28;20202;-81
2022/08/24 13:27:14;;;;;;;4.05;1.80;;;35.70;79.60;;;;;;4992111;28;20319;-80
2022/08/24 13:29:42;;;;;;;2.35;1.75;;;35.70;79.90;;;;;;4970089;28;20215;-79
2022/08/24 13:32:26;;;;;;;2.20;2.00;;;35.60;80.90;;;;;;4991037;28;20323;-80
2022/08/24 13:34:58;;;;;;;2.00;1.90;;;35.60;80.20;;;;;;4980516;28;20328;-81
2022/08/24 13:37:26;;;;;;;3.53;2.38;;;35.30;80.30;;;;;;4992014;28;20254;-80
2022/08/24 13:40:15;;;;;;;3.88;1.70;;;35.30;80.80;;;;;;4991167;28;20562;-82
2022/08/24 13:43:03;;;;;;;1.75;1.48;;;35.30;80.10;;;;;;4990410;28;20306;-81
2022/08/24 13:45:49;;;;;;;2.38;1.40;;;35.20;78.20;;;;;;4990966;28;20206;-82
2022/08/24 13:48:39;;;;;;;2.65;1.73;;;35.00;78.80;;;;;;4989618;28;20211;-82
2022/08/24 13:51:19;;;;;;;3.78;1.60;;;34.70;78.80;;;;;;4985465;28;20336;-82
2022/08/24 13:54:04;;;;;;;4.00;1.60;;;34.60;78.60;;;;;;5004943;28;20238;-82
2022/08/24 13:56:46;;;;;;;1.60;1.50;;;34.30;78.40;;;;;;4986543;28;20203;-82
2022/08/24 13:59:32;;;;;;;1.70;1.60;;;34.30;78.70;;;;;;4988079;28;20206;-80
2022/08/24 14:02:20;;;;;;;3.10;1.60;;;34.30;79.50;;;;;;4998138;28;20804;-81
2022/08/24 14:05:08;;;;;;;1.70;1.60;;;34.50;79.20;;;;;;4987879;28;20274;-81